This is the latest recevied weather packets stored in our database for station/object BMCB-15. If no packets are shown the sender has not sent any weather packets the latest 10 day(s).
| Time | Temp. | Humidity | Pressure | Rain* | Wind** | Luminosity | Snow |
|---|---|---|---|---|---|---|---|
| 1777798839 | 16.11° C | 70% | 1014.3 hPa | 0 mm | - | 178 W/m² | - |
| 1777797638 | 16.11° C | 68% | 1014.2 hPa | 0 mm | - | 240 W/m² | - |
| 1777794636 | 15.56° C | 73% | 1014 hPa | 0 mm | - | 186 W/m² | - |
| 1777787435 | 13.89° C | 89% | 1013.9 hPa | 0 mm | - | 78 W/m² | - |
| 1777783836 | 13.33° C | 90% | 1013.9 hPa | 0 mm | - | 20 W/m² | - |
| 1777783238 | 13.33° C | 90% | 1014.1 hPa | 0 mm | - | 14 W/m² | - |
| 1777782035 | 13.33° C | 90% | 1014.2 hPa | 0 mm | - | 2 W/m² | - |
| 1777771236 | 13.89° C | 90% | 1014.8 hPa | 0 mm | - | 0 W/m² | - |
| 1777761043 | 15° C | 85% | 1015.9 hPa | 0 mm | - | 0 W/m² | - |
| 1777758646 | 15.56° C | 81% | 1016 hPa | 0 mm | - | 0 W/m² | - |
| 1777757448 | 15.56° C | 82% | 1016.1 hPa | 0 mm | - | 0 W/m² | - |
| 1777747246 | 18.33° C | 71% | 1016.5 hPa | 0 mm | - | 2 W/m² | - |
| 1777744241 | 20.56° C | 67% | 1015.7 hPa | 0 mm | - | 70 W/m² | - |
| 1777743048 | 21.11° C | 65% | 1015.7 hPa | 0 mm | - | 80 W/m² | - |
| 1777742443 | 21.67° C | 64% | 1015.7 hPa | 0 mm | - | 74 W/m² | - |
| 1777741243 | 21.67° C | 61% | 1015.8 hPa | 0 mm | - | 60 W/m² | - |
| 1777736441 | 23.89° C | 55% | 1016.6 hPa | 0 mm | - | 296 W/m² | - |
| 1777731639 | 23.33° C | 55% | 1018.1 hPa | 0 mm | - | 660 W/m² | - |
| 1777714840 | 20.56° C | 64% | 1021 hPa | 0 mm | - | 622 W/m² | - |
| 1777714239 | 20.56° C | 64% | 1021.1 hPa | 0 mm | - | 610 W/m² | - |
| 1777710639 | 18.89° C | 67% | 1021.5 hPa | 0 mm | - | 516 W/m² | - |
| 1777707036 | 16.67° C | 72% | 1022.1 hPa | 0 mm | - | 320 W/m² | - |
| 1777705840 | 16.11° C | 72% | 1022.1 hPa | 0 mm | - | 294 W/m² | - |
| 1777701638 | 12.78° C | 76% | 1022.3 hPa | 0 mm | - | 60 W/m² | - |
| 1777696839 | 13.33° C | 71% | 1021.8 hPa | 0 mm | - | 10 W/m² | - |
* Rain latest hour (hover to see other rain measurements)
** Current wind speed in m/s (hover to see current wind gust speed)